createdAt,value
2023-01-28T00:00:53.567Z,7.30
2023-01-28T00:03:20.506Z,6.70
2023-01-28T00:05:47.353Z,7.33
2023-01-28T00:08:14.851Z,7.13
2023-01-28T00:10:43.220Z,6.00
2023-01-28T00:13:11.898Z,5.37
2023-01-28T00:15:38.535Z,6.60
2023-01-28T00:18:05.178Z,5.60
2023-01-28T00:20:32.111Z,7.07
2023-01-28T00:22:58.752Z,6.73
2023-01-28T00:25:25.402Z,6.07
2023-01-28T00:27:52.366Z,6.73
2023-01-28T00:30:19.665Z,5.97
2023-01-28T00:32:46.299Z,7.87
2023-01-28T00:35:13.851Z,8.23
2023-01-28T00:37:41.452Z,8.00
2023-01-28T00:40:10.113Z,7.33
2023-01-28T00:42:37.537Z,8.47
2023-01-28T00:45:04.419Z,8.13
2023-01-28T00:47:31.467Z,7.77
2023-01-28T00:49:58.494Z,8.07
2023-01-28T00:52:25.872Z,8.30
2023-01-28T00:54:54.550Z,6.87
2023-01-28T00:57:21.207Z,8.33
2023-01-28T00:59:47.967Z,6.40
2023-01-28T01:02:14.795Z,7.80
2023-01-28T01:04:41.705Z,7.67
2023-01-28T01:07:08.413Z,8.47
2023-01-28T01:09:35.272Z,7.97
2023-01-28T01:12:03.372Z,8.03
2023-01-28T01:14:30.031Z,8.27
2023-01-28T01:16:56.748Z,9.17
2023-01-28T01:19:23.437Z,8.17
2023-01-28T01:21:50.922Z,8.07
2023-01-28T01:24:17.983Z,8.37
2023-01-28T01:26:44.775Z,7.40
2023-01-28T01:29:11.541Z,8.30
2023-01-28T01:31:38.588Z,8.37
2023-01-28T01:34:05.500Z,8.20
2023-01-28T01:36:32.160Z,8.13
2023-01-28T01:38:58.844Z,8.10
2023-01-28T01:41:29.886Z,7.83
2023-01-28T01:44:00.904Z,7.73
2023-01-28T01:46:43.657Z,7.93
2023-01-28T01:49:17.276Z,8.63
2023-01-28T01:51:44.757Z,8.30
2023-01-28T01:54:11.604Z,8.03
2023-01-28T01:56:41.364Z,7.83
2023-01-28T01:59:10.990Z,7.53
2023-01-28T02:01:37.699Z,7.17
2023-01-28T02:04:10.599Z,7.40
2023-01-28T02:06:37.976Z,7.03
2023-01-28T02:09:07.791Z,6.93
2023-01-28T02:11:35.140Z,7.33
2023-01-28T02:14:03.919Z,7.50
2023-01-28T02:16:31.391Z,8.17
2023-01-28T02:18:58.105Z,8.30
2023-01-28T02:21:33.656Z,9.17
2023-01-28T02:24:00.501Z,8.00
2023-01-28T02:26:27.217Z,7.83
2023-01-28T02:29:06.194Z,8.33
2023-01-28T02:31:38.895Z,9.40
2023-01-28T02:34:24.472Z,8.80
2023-01-28T02:36:57.894Z,9.83
2023-01-28T02:39:27.080Z,9.67
2023-01-28T02:41:56.393Z,9.23
2023-01-28T02:44:24.053Z,10.20
2023-01-28T02:47:11.816Z,9.80
2023-01-28T02:49:42.374Z,11.27
2023-01-28T02:52:18.577Z,10.80
2023-01-28T02:54:49.840Z,7.13
2023-01-28T02:57:26.852Z,10.27
2023-01-28T03:00:05.970Z,10.53
2023-01-28T03:02:36.831Z,11.37
2023-01-28T03:05:06.080Z,11.20
2023-01-28T03:07:35.532Z,10.43
2023-01-28T03:10:06.272Z,10.90
2023-01-28T03:12:54.072Z,12.33
2023-01-28T03:15:51.136Z,10.83
2023-01-28T03:18:42.377Z,12.17
2023-01-28T03:21:29.707Z,13.63
2023-01-28T03:24:17.482Z,13.50
2023-01-28T03:27:11.090Z,13.33
2023-01-28T03:29:58.097Z,13.40
2023-01-28T03:32:43.552Z,14.37
2023-01-28T03:35:29.459Z,14.33
2023-01-28T03:38:00.094Z,15.27
2023-01-28T03:40:28.407Z,15.20
2023-01-28T03:42:56.897Z,14.97
2023-01-28T03:45:33.159Z,15.80
2023-01-28T03:48:01.791Z,13.27
2023-01-28T03:50:29.109Z,14.53
2023-01-28T03:53:15.878Z,15.17
2023-01-28T03:55:48.369Z,11.67
2023-01-28T03:58:15.385Z,16.60
2023-01-28T04:00:43.263Z,14.80
2023-01-28T04:03:19.010Z,16.53
2023-01-28T04:06:09.179Z,16.70
2023-01-28T04:09:01.781Z,16.97
2023-01-28T04:11:51.380Z,17.40
2023-01-28T04:14:25.105Z,16.37
2023-01-28T04:16:56.879Z,18.03
2023-01-28T04:19:25.673Z,17.50
2023-01-28T04:21:56.813Z,18.93
2023-01-28T04:24:24.606Z,18.90
2023-01-28T04:26:51.649Z,19.17
2023-01-28T04:29:19.081Z,16.13
2023-01-28T04:31:47.447Z,17.17
2023-01-28T04:34:32.764Z,19.50
2023-01-28T04:37:22.414Z,19.63
2023-01-28T04:40:07.548Z,19.97
2023-01-28T04:42:42.699Z,20.63
2023-01-28T04:45:19.372Z,18.53
2023-01-28T04:47:51.987Z,19.17
2023-01-28T04:50:42.021Z,19.80
2023-01-28T04:53:40.673Z,20.63
2023-01-28T04:56:23.031Z,19.70
2023-01-28T04:58:49.732Z,20.37
2023-01-28T05:01:17.335Z,18.20
2023-01-28T05:03:43.961Z,21.70
2023-01-28T05:06:18.167Z,19.07
2023-01-28T05:08:46.806Z,20.63
2023-01-28T05:11:15.199Z,20.00
2023-01-28T05:13:43.178Z,18.97
2023-01-28T05:16:12.481Z,18.30
2023-01-28T05:18:39.157Z,17.33
2023-01-28T05:21:12.859Z,17.57
2023-01-28T05:23:40.442Z,16.80
2023-01-28T05:26:06.996Z,17.07
2023-01-28T05:28:34.721Z,15.47
2023-01-28T05:31:05.484Z,17.20
2023-01-28T05:33:32.449Z,16.33
2023-01-28T05:35:59.168Z,16.53
2023-01-28T05:38:25.781Z,15.10
2023-01-28T05:40:53.157Z,17.00
2023-01-28T05:43:19.826Z,17.50
2023-01-28T05:46:06.922Z,14.87
2023-01-28T05:49:12.502Z,17.57
2023-01-28T05:51:48.481Z,17.57
2023-01-28T05:54:18.995Z,18.10
2023-01-28T05:56:47.513Z,17.90
2023-01-28T05:59:14.436Z,16.57
2023-01-28T06:01:43.029Z,16.83
2023-01-28T06:04:11.123Z,16.87
2023-01-28T06:06:39.334Z,17.43
2023-01-28T06:09:06.188Z,15.97
2023-01-28T06:11:33.844Z,18.53
2023-01-28T06:14:03.402Z,16.23
2023-01-28T06:16:52.280Z,16.83
2023-01-28T06:19:39.159Z,16.60
2023-01-28T06:22:07.823Z,17.50
2023-01-28T06:24:34.443Z,18.33
2023-01-28T06:27:01.007Z,17.53
2023-01-28T06:29:27.899Z,17.43
2023-01-28T06:31:54.788Z,18.23
2023-01-28T06:34:21.603Z,16.63
2023-01-28T06:36:48.238Z,16.83
2023-01-28T06:39:15.591Z,18.13
2023-01-28T06:41:42.109Z,16.87
2023-01-28T06:44:08.675Z,17.90
2023-01-28T06:46:35.314Z,16.83
2023-01-28T06:49:02.043Z,15.57
2023-01-28T06:51:28.677Z,17.40
2023-01-28T06:53:55.289Z,18.07
2023-01-28T06:56:21.973Z,18.13
2023-01-28T06:58:48.555Z,18.23
2023-01-28T07:01:15.305Z,18.97
2023-01-28T07:03:41.878Z,17.03
2023-01-28T07:06:08.737Z,16.13
2023-01-28T07:08:37.780Z,15.03
2023-01-28T07:11:04.722Z,11.10
2023-01-28T07:13:34.452Z,14.77
2023-01-28T07:16:01.095Z,14.90
2023-01-28T07:18:27.901Z,14.73
2023-01-28T07:20:54.669Z,12.50
2023-01-28T07:23:21.264Z,12.90
2023-01-28T07:25:47.919Z,13.47
2023-01-28T07:28:14.543Z,14.80
2023-01-28T07:30:41.069Z,14.17
2023-01-28T07:33:08.046Z,12.27
2023-01-28T07:35:35.544Z,13.33
2023-01-28T07:38:02.274Z,12.47
2023-01-28T07:40:29.422Z,13.57
2023-01-28T07:42:56.814Z,14.30
2023-01-28T07:45:24.772Z,13.80
2023-01-28T07:47:55.846Z,12.50
2023-01-28T07:50:22.515Z,14.13
2023-01-28T07:52:49.190Z,14.53
2023-01-28T07:55:16.875Z,14.17
2023-01-28T07:57:49.623Z,14.23
2023-01-28T08:00:17.119Z,13.60
2023-01-28T08:02:48.018Z,13.77
2023-01-28T08:05:16.002Z,15.17
2023-01-28T08:07:43.017Z,15.77
2023-01-28T08:10:10.531Z,12.53
2023-01-28T08:12:37.155Z,15.57
2023-01-28T08:15:05.562Z,15.60
2023-01-28T08:17:32.451Z,16.87
2023-01-28T08:19:59.047Z,15.23
2023-01-28T08:22:26.057Z,13.70
2023-01-28T08:24:53.084Z,15.53
2023-01-28T08:27:19.799Z,15.23
2023-01-28T08:29:46.331Z,14.93
2023-01-28T08:32:12.956Z,15.27
2023-01-28T08:34:39.706Z,14.83
2023-01-28T08:37:06.485Z,16.80
2023-01-28T08:39:33.240Z,13.77
2023-01-28T08:41:59.929Z,15.50
2023-01-28T08:44:26.634Z,15.73
2023-01-28T08:50:05.179Z,16.47
2023-01-28T08:52:34.836Z,14.37
2023-01-28T08:55:01.471Z,13.03
2023-01-28T08:57:28.619Z,16.10
2023-01-28T08:59:55.235Z,14.77
2023-01-28T09:02:31.031Z,14.30
2023-01-28T09:04:58.499Z,15.03
2023-01-28T09:07:25.098Z,15.00
2023-01-28T09:09:51.718Z,15.53
2023-01-28T09:12:18.742Z,15.57
2023-01-28T09:14:45.401Z,16.27
2023-01-28T09:17:12.009Z,17.00
2023-01-28T09:19:38.691Z,16.33
2023-01-28T09:22:05.340Z,16.43
2023-01-28T09:24:31.975Z,15.90
2023-01-28T09:26:58.613Z,16.37
2023-01-28T09:29:25.198Z,15.90
2023-01-28T09:31:51.873Z,16.10
2023-01-28T09:34:18.818Z,15.93
2023-01-28T09:36:45.383Z,15.00
2023-01-28T09:39:12.028Z,15.57
2023-01-28T09:41:44.740Z,16.77
2023-01-28T09:44:26.575Z,16.20
2023-01-28T09:46:53.222Z,14.57
2023-01-28T09:49:24.041Z,14.73
2023-01-28T09:51:53.586Z,14.37
2023-01-28T09:54:40.458Z,15.47
2023-01-28T09:57:12.175Z,17.23
2023-01-28T09:59:38.839Z,14.80
2023-01-28T10:02:24.031Z,12.33
2023-01-28T10:05:11.807Z,16.20
2023-01-28T10:07:57.317Z,14.73
2023-01-28T10:10:29.179Z,15.47
2023-01-28T10:13:01.477Z,15.47
2023-01-28T10:15:45.617Z,16.07
2023-01-28T10:18:17.496Z,13.90
2023-01-28T10:20:56.188Z,14.70
2023-01-28T10:23:26.719Z,15.97
2023-01-28T10:25:53.711Z,15.63
2023-01-28T10:28:30.120Z,16.50
2023-01-28T10:30:57.534Z,14.70
2023-01-28T10:33:37.407Z,16.43
2023-01-28T10:36:04.410Z,17.20
2023-01-28T10:38:31.705Z,14.07
2023-01-28T10:41:01.410Z,16.27
2023-01-28T10:43:31.157Z,16.43
2023-01-28T10:46:13.210Z,16.50
2023-01-28T10:49:01.634Z,16.37
2023-01-28T10:51:32.303Z,17.63
2023-01-28T10:53:59.045Z,16.63
2023-01-28T10:56:27.497Z,17.10
2023-01-28T10:59:04.415Z,16.13
2023-01-28T11:01:40.312Z,16.30
2023-01-28T11:04:15.084Z,17.60
2023-01-28T11:06:41.800Z,17.43
2023-01-28T11:09:21.442Z,17.30
2023-01-28T11:11:48.043Z,17.83
2023-01-28T11:14:25.241Z,17.37
2023-01-28T11:16:53.220Z,17.77
2023-01-28T11:19:21.648Z,19.27
2023-01-28T11:21:49.846Z,16.60
2023-01-28T11:24:20.115Z,17.37
2023-01-28T11:26:49.751Z,18.87
2023-01-28T11:29:24.151Z,17.70
2023-01-28T11:31:50.923Z,15.70
2023-01-28T11:34:18.538Z,18.33
2023-01-28T11:36:55.744Z,18.40
2023-01-28T11:39:28.621Z,13.80
2023-01-28T11:41:55.694Z,15.63
2023-01-28T11:44:23.929Z,17.47
2023-01-28T11:47:13.802Z,17.67
2023-01-28T11:49:40.590Z,17.30
2023-01-28T11:52:13.656Z,17.63
2023-01-28T11:54:52.178Z,14.07
2023-01-28T11:57:23.593Z,14.03
2023-01-28T12:00:05.479Z,18.30
2023-01-28T12:02:58.948Z,14.97
2023-01-28T12:05:49.137Z,15.50
2023-01-28T12:08:20.367Z,16.17
2023-01-28T12:11:08.053Z,17.80
2023-01-28T12:13:44.014Z,15.33
2023-01-28T12:16:13.849Z,18.53
2023-01-28T12:18:55.361Z,17.07
2023-01-28T12:21:31.937Z,15.73
2023-01-28T12:23:58.699Z,14.27
2023-01-28T12:26:45.681Z,15.30
2023-01-28T12:29:18.611Z,18.00
2023-01-28T12:31:48.939Z,16.53
2023-01-28T12:34:15.695Z,15.27
2023-01-28T12:36:45.475Z,15.57
2023-01-28T12:39:19.939Z,12.70
2023-01-28T12:41:48.567Z,13.93
2023-01-28T12:44:21.111Z,13.30
2023-01-28T12:46:55.842Z,14.53
2023-01-28T12:49:29.786Z,15.40
2023-01-28T12:52:02.534Z,16.37
2023-01-28T12:54:36.515Z,16.73
2023-01-28T12:57:03.694Z,15.90
2023-01-28T12:59:37.370Z,15.30
2023-01-28T13:02:24.323Z,15.07
2023-01-28T13:05:04.040Z,14.77
2023-01-28T13:07:49.766Z,17.27
2023-01-28T13:10:28.961Z,16.57
2023-01-28T13:12:56.706Z,16.00
2023-01-28T13:15:23.613Z,16.97
2023-01-28T13:18:08.180Z,16.03
2023-01-28T13:20:51.866Z,15.47
2023-01-28T13:23:34.805Z,14.47
2023-01-28T13:26:10.574Z,15.00
2023-01-28T13:28:37.416Z,16.73
2023-01-28T13:31:08.776Z,16.77
2023-01-28T13:33:36.898Z,16.07
2023-01-28T13:36:08.908Z,15.70
2023-01-28T13:38:36.007Z,15.60
2023-01-28T13:41:06.551Z,15.90
2023-01-28T13:43:33.218Z,15.87
2023-01-28T13:46:01.352Z,15.53
2023-01-28T13:48:33.010Z,17.63
2023-01-28T13:51:00.370Z,16.30
2023-01-28T13:53:34.910Z,13.60
2023-01-28T13:56:03.850Z,16.70
2023-01-28T13:58:30.740Z,16.83
2023-01-28T14:01:15.905Z,18.13
2023-01-28T14:03:51.892Z,17.10
2023-01-28T14:06:37.535Z,17.97
2023-01-28T14:09:13.038Z,18.00
2023-01-28T14:11:58.196Z,17.77
2023-01-28T14:14:24.799Z,17.13
2023-01-28T14:17:04.018Z,18.83
2023-01-28T14:19:34.585Z,17.70
2023-01-28T14:22:10.193Z,15.03
2023-01-28T14:24:38.510Z,15.40
2023-01-28T14:27:11.889Z,16.70
2023-01-28T14:29:41.510Z,17.30
2023-01-28T14:32:19.213Z,29.30
2023-01-28T14:34:46.825Z,28.93
2023-01-28T14:37:21.598Z,20.57
2023-01-28T14:39:48.325Z,18.17
2023-01-28T14:42:18.846Z,18.13
2023-01-28T14:44:46.544Z,17.47
2023-01-28T14:47:16.025Z,19.13
2023-01-28T14:49:54.613Z,17.43
2023-01-28T14:52:24.301Z,17.90
2023-01-28T14:55:17.117Z,17.93
2023-01-28T14:57:46.799Z,17.87
2023-01-28T15:00:18.034Z,19.00
2023-01-28T15:02:45.032Z,19.07
2023-01-28T15:05:16.037Z,18.53
2023-01-28T15:07:46.845Z,19.07
2023-01-28T15:10:21.057Z,18.03
2023-01-28T15:12:51.064Z,20.63
2023-01-28T15:15:23.850Z,18.40
2023-01-28T15:17:50.969Z,18.80
2023-01-28T15:20:19.456Z,16.73
2023-01-28T15:22:46.468Z,17.70
2023-01-28T15:25:23.374Z,17.30
2023-01-28T15:27:52.404Z,19.80
2023-01-28T15:30:27.207Z,18.43
2023-01-28T15:32:59.115Z,17.47
2023-01-28T15:35:25.879Z,18.73
2023-01-28T15:37:52.690Z,20.20
2023-01-28T15:40:21.217Z,19.20
2023-01-28T15:42:48.535Z,20.40
2023-01-28T15:45:19.990Z,18.13
2023-01-28T15:47:47.283Z,22.43
2023-01-28T15:50:18.837Z,20.40
2023-01-28T15:52:46.262Z,20.57
2023-01-28T15:55:29.881Z,19.70
2023-01-28T15:57:57.161Z,19.30
2023-01-28T16:00:25.545Z,20.07
2023-01-28T16:02:53.410Z,21.10
2023-01-28T16:05:28.735Z,21.67
2023-01-28T16:07:56.913Z,23.63
2023-01-28T16:10:25.823Z,29.83
2023-01-28T16:12:54.472Z,38.00
2023-01-28T16:15:22.741Z,32.90
2023-01-28T16:17:51.059Z,28.63
2023-01-28T16:20:22.587Z,31.03
2023-01-28T16:22:50.076Z,31.00
2023-01-28T16:25:30.895Z,29.13
2023-01-28T16:27:58.694Z,31.10
2023-01-28T16:30:25.795Z,30.83
2023-01-28T16:32:53.083Z,30.30
2023-01-28T16:35:22.110Z,28.60
2023-01-28T16:37:49.781Z,26.33
2023-01-28T16:40:18.666Z,27.53
2023-01-28T16:42:46.356Z,30.60
2023-01-28T16:45:23.623Z,27.87
2023-01-28T16:47:51.285Z,27.77
2023-01-28T16:50:19.050Z,24.20
2023-01-28T16:52:48.082Z,22.83
2023-01-28T16:55:18.837Z,23.13
2023-01-28T16:57:47.186Z,22.43
2023-01-28T17:00:23.844Z,22.90
2023-01-28T17:02:51.088Z,21.63
2023-01-28T17:05:18.751Z,23.47
2023-01-28T17:07:49.518Z,24.33
2023-01-28T17:10:16.867Z,24.43
2023-01-28T17:12:44.274Z,23.87
2023-01-28T17:15:11.370Z,23.50
2023-01-28T17:17:38.067Z,22.73
2023-01-28T17:20:07.249Z,21.70
2023-01-28T17:22:34.239Z,23.10
2023-01-28T17:25:00.881Z,23.07
2023-01-28T17:27:27.479Z,25.77
2023-01-28T17:29:54.057Z,24.67
2023-01-28T17:32:20.740Z,24.23
2023-01-28T17:34:48.163Z,23.33
2023-01-28T17:37:14.861Z,21.47
2023-01-28T17:39:41.586Z,21.50
2023-01-28T17:42:08.219Z,21.20
2023-01-28T17:44:35.547Z,20.90
2023-01-28T17:47:02.192Z,21.70
2023-01-28T17:49:28.930Z,20.60
2023-01-28T17:51:55.571Z,21.27
2023-01-28T17:54:23.637Z,22.13
2023-01-28T17:56:50.245Z,21.77
2023-01-28T17:59:17.726Z,19.83
2023-01-28T18:01:44.947Z,22.43
2023-01-28T18:04:13.499Z,20.30
2023-01-28T18:06:40.312Z,21.20
2023-01-28T18:09:07.338Z,19.93
2023-01-28T18:11:34.047Z,19.90
2023-01-28T18:14:00.844Z,19.40
2023-01-28T18:16:27.671Z,21.07
2023-01-28T18:18:54.429Z,20.93
2023-01-28T18:21:22.808Z,21.67
2023-01-28T18:23:51.198Z,22.63
2023-01-28T18:26:17.857Z,21.07
2023-01-28T18:28:44.588Z,22.53
2023-01-28T18:31:11.496Z,25.30
2023-01-28T18:33:38.320Z,25.10
2023-01-28T18:36:06.220Z,24.70
2023-01-28T18:38:33.290Z,25.17
2023-01-28T18:41:00.075Z,25.53
2023-01-28T18:43:26.776Z,25.90
2023-01-28T18:45:54.094Z,25.37
2023-01-28T18:48:20.877Z,24.03
2023-01-28T18:50:51.323Z,25.30
2023-01-28T18:53:18.181Z,26.07
2023-01-28T18:55:44.859Z,25.33
2023-01-28T18:58:11.744Z,25.43
2023-01-28T19:00:39.038Z,27.23
2023-01-28T19:03:06.073Z,27.43
2023-01-28T19:05:36.685Z,26.10
2023-01-28T19:08:04.969Z,27.10
2023-01-28T19:10:31.584Z,26.63
2023-01-28T19:12:58.688Z,23.80
2023-01-28T19:15:25.370Z,25.93
2023-01-28T19:17:52.069Z,25.60
2023-01-28T19:20:21.368Z,27.80
2023-01-28T19:22:48.442Z,26.07
2023-01-28T19:25:16.634Z,26.37
2023-01-28T19:27:43.438Z,25.73
2023-01-28T19:30:10.914Z,25.67
2023-01-28T19:32:37.527Z,25.90
2023-01-28T19:35:04.368Z,26.67
2023-01-28T19:37:31.191Z,25.13
2023-01-28T19:39:57.881Z,26.17
2023-01-28T19:42:25.125Z,25.23
2023-01-28T19:44:51.793Z,26.17
2023-01-28T19:47:18.426Z,25.37
2023-01-28T19:49:45.057Z,25.63
2023-01-28T19:52:11.706Z,27.63
2023-01-28T19:54:38.335Z,25.97
2023-01-28T19:57:05.077Z,24.97
2023-01-28T19:59:31.925Z,26.97
2023-01-28T20:01:58.990Z,27.03
2023-01-28T20:04:25.705Z,26.37
2023-01-28T20:06:52.441Z,28.57
2023-01-28T20:09:22.742Z,27.73
2023-01-28T20:11:49.428Z,28.40
2023-01-28T20:14:18.051Z,28.43
2023-01-28T20:16:44.872Z,26.47
2023-01-28T20:19:19.028Z,26.67
2023-01-28T20:21:46.321Z,25.13
2023-01-28T20:24:14.975Z,25.97
2023-01-28T20:26:42.877Z,25.07
2023-01-28T20:29:11.053Z,25.90
2023-01-28T20:31:38.643Z,30.13
2023-01-28T20:34:07.540Z,30.40
2023-01-28T20:36:34.693Z,29.87
2023-01-28T20:39:01.463Z,30.17
2023-01-28T20:41:28.373Z,29.50
2023-01-28T20:43:57.876Z,30.27
2023-01-28T20:46:26.367Z,28.07
2023-01-28T20:48:57.014Z,28.40
2023-01-28T20:51:28.016Z,26.30
2023-01-28T20:53:55.066Z,27.53
2023-01-28T20:56:22.937Z,28.27
2023-01-28T20:58:54.064Z,26.73
2023-01-28T21:01:22.344Z,26.17
2023-01-28T21:03:49.150Z,27.80
2023-01-28T21:06:15.869Z,25.83
2023-01-28T21:08:43.024Z,26.10
2023-01-28T21:11:09.807Z,27.07
2023-01-28T21:13:36.674Z,35.17
2023-01-28T21:16:03.919Z,36.63
2023-01-28T21:18:30.581Z,35.73
2023-01-28T21:21:02.189Z,29.67
2023-01-28T21:23:28.912Z,28.83
2023-01-28T21:25:55.516Z,29.43
2023-01-28T21:28:22.227Z,29.10
2023-01-28T21:30:48.881Z,27.47
2023-01-28T21:33:15.667Z,26.63
2023-01-28T21:35:44.390Z,25.70
2023-01-28T21:38:11.309Z,25.70
2023-01-28T21:40:38.574Z,26.60
2023-01-28T21:43:05.268Z,26.10
2023-01-28T21:45:31.928Z,25.97
2023-01-28T21:47:58.664Z,24.63
2023-01-28T21:50:25.792Z,25.30
2023-01-28T21:52:52.436Z,26.23
2023-01-28T21:55:19.498Z,25.47
2023-01-28T21:57:46.200Z,26.00
2023-01-28T22:00:13.249Z,25.87
2023-01-28T22:02:40.398Z,26.13
2023-01-28T22:05:07.356Z,26.50
2023-01-28T22:07:34.503Z,27.93
2023-01-28T22:10:01.281Z,26.73
2023-01-28T22:12:28.315Z,28.03
2023-01-28T22:14:54.951Z,27.83
2023-01-28T22:17:21.731Z,29.23
2023-01-28T22:19:48.427Z,28.83
2023-01-28T22:22:15.850Z,31.47
2023-01-28T22:24:42.594Z,30.47
2023-01-28T22:27:09.470Z,31.13
2023-01-28T22:29:36.035Z,33.27
2023-01-28T22:32:04.928Z,32.63
2023-01-28T22:34:31.870Z,32.43
2023-01-28T22:36:58.528Z,33.33
2023-01-28T22:39:25.208Z,31.70
2023-01-28T22:41:51.899Z,33.43
2023-01-28T22:44:20.053Z,33.23
2023-01-28T22:46:47.463Z,32.37
2023-01-28T22:49:15.182Z,31.90
2023-01-28T22:51:41.951Z,30.57
2023-01-28T22:54:10.596Z,30.43
2023-01-28T22:56:37.223Z,31.20
2023-01-28T22:59:04.009Z,32.87
2023-01-28T23:01:30.759Z,31.13
2023-01-28T23:03:57.762Z,30.73
2023-01-28T23:06:26.046Z,30.57
2023-01-28T23:08:52.828Z,31.90
2023-01-28T23:11:27.273Z,32.03
2023-01-28T23:14:16.787Z,31.67
2023-01-28T23:17:02.453Z,31.63
2023-01-28T23:19:47.885Z,31.37
2023-01-28T23:22:35.978Z,30.63
2023-01-28T23:25:02.821Z,31.80
2023-01-28T23:27:29.500Z,34.67
2023-01-28T23:29:56.327Z,34.40
2023-01-28T23:32:23.347Z,30.93
2023-01-28T23:34:50.364Z,32.30
2023-01-28T23:37:17.175Z,32.20
2023-01-28T23:39:44.417Z,32.33
2023-01-28T23:42:12.241Z,30.93
2023-01-28T23:44:38.869Z,32.43
2023-01-28T23:47:05.551Z,30.50
2023-01-28T23:49:32.179Z,31.57
2023-01-28T23:51:58.840Z,31.97
2023-01-28T23:54:25.494Z,32.20
2023-01-28T23:56:52.305Z,32.27
2023-01-28T23:59:19.627Z,32.73
